Time;durP1;ratioP1;P1;durP2;ratioP2;P2;SDS_P1;SDS_P2;PMS_P1;PMS_P2;Temp;Humidity;BMP_temperature;BMP_pressure;BME280_temperature;BME280_humidity;BME280_pressure;Samples;Min_cycle;Max_cycle;Signal;HPM_P1;HPM_P2
2022/04/15 00:02:18;;;;;;;28.63;15.45;;;;;;;;;;6187687;28;20046;-62
2022/04/15 00:05:37;;;;;;;37.05;16.67;;;;;;;;;;6180830;28;20405;-62
2022/04/15 00:08:38;;;;;;;30.67;16.67;;;;;;;;;;6181929;28;20058;-62
2022/04/15 00:11:39;;;;;;;30.90;16.00;;;;;;;;;;6186829;28;20042;-62
2022/04/15 00:14:39;;;;;;;29.85;14.95;;;;;;;;;;6188755;28;20132;-62
2022/04/15 00:17:41;;;;;;;34.13;17.25;;;;;;;;;;6189217;28;20073;-61
2022/04/15 00:20:41;;;;;;;38.42;16.95;;;;;;;;;;6186413;28;20482;-61
2022/04/15 00:23:42;;;;;;;34.47;16.58;;;;;;;;;;6184777;28;20185;-61
2022/04/15 00:26:42;;;;;;;33.22;16.67;;;;;;;;;;6187251;28;20043;-61
2022/04/15 00:29:43;;;;;;;29.77;16.25;;;;;;;;;;6181058;28;20476;-61
2022/04/15 00:32:44;;;;;;;32.38;17.27;;;;;;;;;;6184617;28;20150;-61
2022/04/15 00:35:44;;;;;;;30.40;16.50;;;;;;;;;;6188812;28;20417;-61
2022/04/15 00:38:45;;;;;;;33.83;18.02;;;;;;;;;;6182572;28;20134;-62
2022/04/15 00:41:46;;;;;;;34.58;17.48;;;;;;;;;;6184436;28;20054;-61
2022/04/15 00:44:48;;;;;;;38.25;18.83;;;;;;;;;;6178143;28;20057;-61
2022/04/15 00:47:57;;;;;;;36.30;17.80;;;;;;;;;;6186937;28;20498;-61
2022/04/15 00:50:57;;;;;;;33.08;18.27;;;;;;;;;;6183091;28;20497;-61
2022/04/15 00:54:02;;;;;;;35.13;18.55;;;;;;;;;;6183522;28;20073;-61
2022/04/15 00:57:04;;;;;;;39.80;19.33;;;;;;;;;;6187765;28;20046;-61
2022/04/15 01:00:06;;;;;;;34.53;18.80;;;;;;;;;;6190939;28;20039;-61
2022/04/15 01:03:07;;;;;;;;;;;;;;;;;;6191739;28;20387;-62
2022/04/15 01:06:08;;;;;;;36.08;19.15;;;;;;;;;;6181677;28;19930;-61
2022/04/15 01:09:11;;;;;;;35.90;20.15;;;;;;;;;;6181609;28;20058;-61
2022/04/15 01:12:13;;;;;;;35.13;19.42;;;;;;;;;;6188095;28;20081;-61
2022/04/15 01:15:14;;;;;;;39.70;21.23;;;;;;;;;;6179118;28;20086;-61
2022/04/15 01:18:15;;;;;;;41.03;21.38;;;;;;;;;;6178622;28;20046;-61
2022/04/15 01:21:17;;;;;;;40.03;20.98;;;;;;;;;;6187003;28;20133;-61
2022/04/15 01:24:18;;;;;;;36.53;20.55;;;;;;;;;;6176991;28;20054;-62
2022/04/15 01:27:26;;;;;;;38.50;20.98;;;;;;;;;;6183768;28;20080;-62
2022/04/15 01:30:28;;;;;;;43.97;21.77;;;;;;;;;;6180767;28;20051;-61
2022/04/15 01:33:29;;;;;;;41.70;21.25;;;;;;;;;;6179858;28;20110;-62
2022/04/15 01:36:29;;;;;;;42.67;22.42;;;;;;;;;;6180438;28;20050;-61
2022/04/15 01:39:34;;;;;;;41.88;21.77;;;;;;;;;;6176122;28;21194;-63
2022/04/15 01:42:36;;;;;;;41.75;22.13;;;;;;;;;;6182048;28;20140;-63
2022/04/15 01:45:36;;;;;;;46.40;23.05;;;;;;;;;;6180810;28;20552;-61
2022/04/15 01:48:37;;;;;;;43.92;23.70;;;;;;;;;;6179281;28;20054;-61
2022/04/15 01:51:37;;;;;;;51.20;24.98;;;;;;;;;;6191069;28;20144;-61
2022/04/15 01:54:38;;;;;;;46.78;25.20;;;;;;;;;;6183492;28;20402;-61
2022/04/15 01:57:39;;;;;;;47.42;24.42;;;;;;;;;;6183646;28;20133;-61
2022/04/15 02:00:39;;;;;;;51.72;25.25;;;;;;;;;;6184619;28;20470;-61
2022/04/15 02:03:40;;;;;;;50.20;25.65;;;;;;;;;;6183376;28;20493;-61
2022/04/15 02:06:41;;;;;;;50.92;26.33;;;;;;;;;;6183920;28;20050;-61
2022/04/15 02:09:41;;;;;;;50.78;25.65;;;;;;;;;;6182333;28;20141;-61
2022/04/15 02:12:42;;;;;;;50.38;27.10;;;;;;;;;;6189774;28;20096;-60
2022/04/15 02:15:42;;;;;;;52.70;28.20;;;;;;;;;;6182824;28;20138;-61
2022/04/15 02:18:43;;;;;;;50.83;26.65;;;;;;;;;;6181307;28;20065;-61
2022/04/15 02:21:43;;;;;;;48.47;26.45;;;;;;;;;;6172451;28;20146;-62
2022/04/15 02:24:44;;;;;;;51.22;25.17;;;;;;;;;;6187009;28;20052;-62
2022/04/15 02:27:45;;;;;;;45.83;25.48;;;;;;;;;;6180752;28;20054;-62
2022/04/15 02:30:47;;;;;;;47.15;26.10;;;;;;;;;;6178673;28;20138;-60
2022/04/15 02:33:48;;;;;;;45.80;25.70;;;;;;;;;;6178590;28;20054;-60
2022/04/15 02:36:49;;;;;;;45.97;25.02;;;;;;;;;;6184427;28;20046;-60
2022/04/15 02:39:50;;;;;;;49.30;26.98;;;;;;;;;;6180762;28;20042;-60
2022/04/15 02:42:50;;;;;;;46.63;26.50;;;;;;;;;;6177121;28;20051;-60
2022/04/15 02:45:51;;;;;;;50.00;26.45;;;;;;;;;;6185934;28;20461;-60
2022/04/15 02:48:52;;;;;;;49.05;25.75;;;;;;;;;;6180106;28;20061;-60
2022/04/15 02:51:54;;;;;;;46.28;24.90;;;;;;;;;;6184177;28;20161;-61
2022/04/15 02:54:55;;;;;;;46.50;24.27;;;;;;;;;;6188243;28;20078;-60
2022/04/15 02:57:55;;;;;;;41.42;25.08;;;;;;;;;;6185656;28;20093;-61
2022/04/15 03:00:56;;;;;;;48.70;25.13;;;;;;;;;;6181366;28;20134;-62
2022/04/15 03:03:56;;;;;;;43.92;24.85;;;;;;;;;;6178303;28;20135;-61
2022/04/15 03:06:57;;;;;;;44.20;25.38;;;;;;;;;;6179218;28;20054;-62
2022/04/15 03:09:58;;;;;;;46.25;26.33;;;;;;;;;;6180070;28;20089;-61
2022/04/15 03:12:59;;;;;;;45.20;24.20;;;;;;;;;;6177077;28;20043;-61
2022/04/15 03:15:59;;;;;;;42.70;23.52;;;;;;;;;;6176334;28;20117;-61
2022/04/15 03:19:00;;;;;;;41.17;23.40;;;;;;;;;;6188591;28;20042;-61
2022/04/15 03:22:01;;;;;;;42.05;23.55;;;;;;;;;;6193215;28;20099;-61
2022/04/15 03:25:03;;;;;;;45.60;24.60;;;;;;;;;;6184179;28;20473;-61
2022/04/15 03:28:04;;;;;;;43.00;23.17;;;;;;;;;;6186526;28;20042;-61
2022/04/15 03:31:05;;;;;;;45.40;24.77;;;;;;;;;;6187673;28;20047;-61
2022/04/15 03:34:06;;;;;;;41.60;23.58;;;;;;;;;;6179846;28;20055;-61
2022/04/15 03:37:06;;;;;;;42.17;22.92;;;;;;;;;;6179849;28;20480;-60
2022/04/15 03:40:07;;;;;;;34.95;18.98;;;;;;;;;;6189864;28;20094;-60
2022/04/15 03:43:09;;;;;;;34.37;19.73;;;;;;;;;;6182321;28;20126;-62
2022/04/15 03:46:09;;;;;;;29.93;18.27;;;;;;;;;;6190092;28;20054;-61
2022/04/15 03:49:10;;;;;;;31.92;16.63;;;;;;;;;;6184406;28;20046;-61
2022/04/15 03:52:11;;;;;;;27.70;16.65;;;;;;;;;;6182938;28;20663;-61
2022/04/15 03:55:16;;;;;;;31.60;16.17;;;;;;;;;;6181466;28;20057;-61
2022/04/15 03:58:17;;;;;;;26.17;14.43;;;;;;;;;;6184148;28;20038;-61
2022/04/15 04:01:18;;;;;;;23.83;14.07;;;;;;;;;;6179354;28;20116;-61
2022/04/15 04:04:18;;;;;;;21.55;12.48;;;;;;;;;;6183318;28;20181;-60
2022/04/15 04:07:19;;;;;;;22.75;11.95;;;;;;;;;;6195381;28;20511;-61
2022/04/15 04:10:20;;;;;;;20.40;11.13;;;;;;;;;;6179940;28;20608;-62
2022/04/15 04:13:20;;;;;;;21.10;10.88;;;;;;;;;;6187334;28;20572;-61
2022/04/15 04:16:21;;;;;;;25.65;12.05;;;;;;;;;;6175151;28;20204;-61
2022/04/15 04:19:21;;;;;;;22.75;12.45;;;;;;;;;;6182551;28;20050;-61
2022/04/15 04:22:28;;;;;;;24.05;13.52;;;;;;;;;;6180525;28;20125;-61
2022/04/15 04:25:28;;;;;;;27.48;12.73;;;;;;;;;;6183609;28;20071;-60
2022/04/15 04:28:29;;;;;;;25.88;14.90;;;;;;;;;;6183906;28;20061;-60
2022/04/15 04:31:30;;;;;;;26.98;14.57;;;;;;;;;;6190484;28;20084;-60
2022/04/15 04:34:30;;;;;;;29.38;18.33;;;;;;;;;;6190474;28;20129;-61
2022/04/15 04:37:32;;;;;;;31.27;16.33;;;;;;;;;;6186781;28;20057;-61
2022/04/15 04:40:36;;;;;;;29.77;20.35;;;;;;;;;;6177569;28;20058;-60
2022/04/15 04:43:36;;;;;;;27.45;16.13;;;;;;;;;;6177572;28;20450;-61
2022/04/15 04:46:37;;;;;;;26.65;15.90;;;;;;;;;;6187194;28;20042;-61
2022/04/15 04:49:37;;;;;;;29.42;15.90;;;;;;;;;;6187935;28;20116;-61
2022/04/15 04:52:39;;;;;;;28.25;15.60;;;;;;;;;;6182485;28;20049;-61
2022/04/15 04:55:40;;;;;;;25.58;15.70;;;;;;;;;;6184422;28;20052;-61
2022/04/15 04:58:42;;;;;;;25.90;15.65;;;;;;;;;;6183784;28;20138;-60
2022/04/15 05:01:42;;;;;;;27.27;15.05;;;;;;;;;;6182164;28;20050;-62
2022/04/15 05:04:43;;;;;;;29.23;16.25;;;;;;;;;;6188498;28;20529;-61
2022/04/15 05:07:43;;;;;;;28.88;17.02;;;;;;;;;;6186808;28;20067;-61
2022/04/15 05:10:44;;;;;;;27.92;15.40;;;;;;;;;;6179757;28;20554;-62
2022/04/15 05:13:45;;;;;;;29.63;16.30;;;;;;;;;;6188157;28;20065;-61
2022/04/15 05:16:45;;;;;;;30.10;16.83;;;;;;;;;;6174082;28;20411;-61
2022/04/15 05:19:46;;;;;;;35.67;20.92;;;;;;;;;;6190073;28;20133;-71
2022/04/15 05:22:46;;;;;;;31.83;18.50;;;;;;;;;;6193600;28;20519;-69
2022/04/15 05:25:47;;;;;;;33.65;19.85;;;;;;;;;;6192815;28;20120;-70
2022/04/15 05:28:48;;;;;;;39.08;21.85;;;;;;;;;;6192438;28;20482;-60
2022/04/15 05:31:48;;;;;;;34.83;21.13;;;;;;;;;;6193416;28;20057;-61
2022/04/15 05:34:49;;;;;;;41.13;23.40;;;;;;;;;;6185914;28;20054;-61
2022/04/15 05:37:50;;;;;;;40.13;22.13;;;;;;;;;;6187034;28;20050;-60
2022/04/15 05:40:51;;;;;;;38.83;22.85;;;;;;;;;;6187141;28;20054;-61
2022/04/15 05:43:51;;;;;;;39.33;22.60;;;;;;;;;;6178080;28;20065;-61
2022/04/15 05:46:52;;;;;;;51.88;31.05;;;;;;;;;;6175512;28;20057;-60
2022/04/15 05:49:53;;;;;;;52.08;29.88;;;;;;;;;;6198979;28;20050;-61
2022/04/15 05:52:54;;;;;;;40.05;24.40;;;;;;;;;;6183223;28;20066;-60
2022/04/15 05:55:56;;;;;;;36.25;20.90;;;;;;;;;;6178423;28;20556;-61
2022/04/15 05:58:57;;;;;;;36.30;20.50;;;;;;;;;;6188164;28;20081;-61
2022/04/15 06:01:57;;;;;;;37.42;22.17;;;;;;;;;;6190095;28;20394;-60
2022/04/15 06:04:58;;;;;;;39.50;25.05;;;;;;;;;;6194059;28;20149;-61
2022/04/15 06:07:59;;;;;;;37.88;23.27;;;;;;;;;;6179047;28;20054;-60
2022/04/15 06:10:59;;;;;;;33.88;21.10;;;;;;;;;;6188872;28;20042;-62
2022/04/15 06:14:03;;;;;;;40.95;27.02;;;;;;;;;;6186085;28;20046;-60
2022/04/15 06:17:03;;;;;;;39.22;25.40;;;;;;;;;;6188414;28;20045;-60
2022/04/15 06:20:05;;;;;;;37.38;23.42;;;;;;;;;;6190205;28;20133;-61
2022/04/15 06:23:05;;;;;;;36.17;21.27;;;;;;;;;;6187885;28;20042;-60
2022/04/15 06:26:09;;;;;;;38.28;22.08;;;;;;;;;;6186896;28;20445;-60
2022/04/15 06:29:09;;;;;;;36.20;20.65;;;;;;;;;;6189625;28;20038;-61
2022/04/15 06:32:10;;;;;;;39.95;21.20;;;;;;;;;;6189531;28;20057;-60
2022/04/15 06:35:10;;;;;;;36.10;21.50;;;;;;;;;;6189392;28;20074;-60
2022/04/15 06:38:11;;;;;;;38.53;22.00;;;;;;;;;;6187628;28;20046;-60
2022/04/15 06:41:12;;;;;;;36.63;21.70;;;;;;;;;;6187906;28;20039;-59
2022/04/15 06:44:13;;;;;;;40.25;24.02;;;;;;;;;;6192836;28;20082;-59
2022/04/15 06:47:13;;;;;;;43.58;27.58;;;;;;;;;;6189251;28;20049;-60
2022/04/15 06:50:16;;;;;;;44.80;26.13;;;;;;;;;;6176450;28;20071;-53
2022/04/15 06:53:16;;;;;;;40.53;23.58;;;;;;;;;;6179326;28;20602;-59
2022/04/15 06:56:17;;;;;;;39.17;23.48;;;;;;;;;;6186687;28;20051;-63
2022/04/15 06:59:18;;;;;;;41.08;22.33;;;;;;;;;;6182739;28;20109;-59
2022/04/15 07:02:18;;;;;;;41.63;24.00;;;;;;;;;;6175750;28;20525;-62
2022/04/15 07:05:19;;;;;;;41.15;22.85;;;;;;;;;;6185217;28;20093;-61
2022/04/15 07:08:19;;;;;;;41.28;22.38;;;;;;;;;;6191288;28;20050;-59
2022/04/15 07:11:20;;;;;;;45.47;24.65;;;;;;;;;;6192378;28;20054;-62
2022/04/15 07:14:21;;;;;;;40.42;22.63;;;;;;;;;;6186874;28;20046;-62
2022/04/15 07:17:21;;;;;;;39.38;22.17;;;;;;;;;;6188460;28;20133;-60
2022/04/15 07:20:23;;;;;;;40.10;21.23;;;;;;;;;;6194852;28;20038;-62
2022/04/15 07:23:23;;;;;;;45.23;28.53;;;;;;;;;;6191975;28;20050;-62
2022/04/15 07:26:24;;;;;;;43.05;22.45;;;;;;;;;;6172244;28;20072;-59
2022/04/15 07:29:26;;;;;;;35.60;19.77;;;;;;;;;;6177839;28;20070;-63
2022/04/15 07:32:28;;;;;;;35.97;20.63;;;;;;;;;;6172425;28;20445;-62
2022/04/15 07:35:29;;;;;;;34.65;19.48;;;;;;;;;;6182982;28;20528;-66
2022/04/15 07:38:29;;;;;;;35.97;19.50;;;;;;;;;;6180355;28;20050;-61
2022/04/15 07:41:30;;;;;;;33.38;20.00;;;;;;;;;;6189223;28;20092;-57
2022/04/15 07:44:31;;;;;;;32.63;17.63;;;;;;;;;;6181917;28;20053;-60
2022/04/15 07:47:31;;;;;;;32.20;17.10;;;;;;;;;;6173341;28;20568;-62
2022/04/15 07:50:33;;;;;;;27.55;14.70;;;;;;;;;;6178484;28;20054;-63
2022/04/15 07:53:33;;;;;;;26.60;14.85;;;;;;;;;;6184489;28;20051;-64
2022/04/15 07:56:34;;;;;;;28.67;15.25;;;;;;;;;;6186020;28;20050;-60
2022/04/15 07:59:35;;;;;;;30.90;15.90;;;;;;;;;;6190023;28;20046;-62
2022/04/15 08:02:37;;;;;;;28.90;15.15;;;;;;;;;;6186350;28;20160;-62
2022/04/15 08:05:38;;;;;;;32.80;18.38;;;;;;;;;;6192486;28;20045;-59
2022/04/15 08:08:39;;;;;;;28.02;14.98;;;;;;;;;;6192748;28;20167;-58
2022/04/15 08:11:39;;;;;;;22.88;12.43;;;;;;;;;;6193196;28;20038;-58
2022/04/15 08:14:40;;;;;;;21.13;11.60;;;;;;;;;;6191825;28;20049;-59
2022/04/15 08:17:40;;;;;;;22.45;12.70;;;;;;;;;;6189611;28;20449;-59
2022/04/15 08:20:41;;;;;;;23.95;12.93;;;;;;;;;;6190111;28;20065;-59
2022/04/15 08:23:42;;;;;;;23.73;13.32;;;;;;;;;;6192165;28;20056;-60
2022/04/15 08:26:44;;;;;;;24.88;14.13;;;;;;;;;;6190825;28;20057;-60
2022/04/15 08:29:45;;;;;;;23.20;13.48;;;;;;;;;;6187668;28;20145;-60
2022/04/15 08:32:53;;;;;;;23.42;14.30;;;;;;;;;;6193573;28;20528;-62
2022/04/15 08:35:54;;;;;;;25.58;14.07;;;;;;;;;;6185882;28;20080;-61
2022/04/15 08:38:55;;;;;;;26.27;16.25;;;;;;;;;;6190215;28;20045;-60
2022/04/15 08:41:57;;;;;;;27.08;15.50;;;;;;;;;;6188090;28;20107;-60
2022/04/15 08:44:58;;;;;;;24.92;15.10;;;;;;;;;;6191042;28;20131;-60
2022/04/15 08:48:02;;;;;;;25.65;14.63;;;;;;;;;;6191769;28;20104;-59
2022/04/15 08:51:04;;;;;;;25.10;13.82;;;;;;;;;;6192983;28;20060;-60
2022/04/15 08:54:07;;;;;;;22.08;12.73;;;;;;;;;;6183704;28;20074;-59
2022/04/15 08:57:07;;;;;;;21.90;12.48;;;;;;;;;;6186211;28;20046;-58
2022/04/15 09:00:08;;;;;;;25.70;13.50;;;;;;;;;;6187123;28;20544;-58
2022/04/15 09:03:09;;;;;;;23.88;13.18;;;;;;;;;;6191415;28;20157;-58
2022/04/15 09:06:16;;;;;;;24.02;13.40;;;;;;;;;;6193756;28;20689;-62
2022/04/15 09:09:17;;;;;;;24.67;14.38;;;;;;;;;;6193762;28;20137;-59
2022/04/15 09:12:19;;;;;;;23.75;13.65;;;;;;;;;;6179806;28;20051;-59
2022/04/15 09:15:20;;;;;;;23.83;14.45;;;;;;;;;;6189098;28;20050;-60
2022/04/15 09:18:36;;;;;;;20.65;12.63;;;;;;;;;;6188670;28;20046;-58
2022/04/15 09:21:38;;;;;;;24.70;14.35;;;;;;;;;;6182894;28;20054;-63
2022/04/15 09:24:42;;;;;;;;;;;;;;;;;;6188590;28;20073;-61
2022/04/15 09:27:43;;;;;;;22.83;13.20;;;;;;;;;;6188107;28;20281;-61
2022/04/15 09:30:43;;;;;;;31.27;17.10;;;;;;;;;;6185402;28;20144;-61
2022/04/15 09:33:57;;;;;;;26.33;15.98;;;;;;;;;;6190550;28;20061;-61
2022/04/15 09:36:58;;;;;;;30.70;18.38;;;;;;;;;;6196267;28;20528;-62
2022/04/15 09:40:12;;;;;;;25.88;15.85;;;;;;;;;;6185687;28;20050;-69
2022/04/15 09:43:13;;;;;;;24.52;14.27;;;;;;;;;;6190730;28;20045;-63
2022/04/15 09:46:15;;;;;;;23.40;14.25;;;;;;;;;;6195007;28;20073;-68
2022/04/15 09:49:15;;;;;;;22.30;13.70;;;;;;;;;;6190837;28;20061;-67
2022/04/15 09:52:26;;;;;;;21.20;13.32;;;;;;;;;;6189058;28;20070;-69
2022/04/15 09:55:27;;;;;;;21.17;13.48;;;;;;;;;;6192397;28;20128;-64
2022/04/15 09:58:28;;;;;;;21.40;13.40;;;;;;;;;;6186951;28;20058;-63
2022/04/15 10:01:32;;;;;;;21.00;12.97;;;;;;;;;;6190508;28;20061;-59
2022/04/15 10:04:34;;;;;;;20.65;13.73;;;;;;;;;;6195323;28;20569;-59
2022/04/15 10:07:35;;;;;;;19.52;12.27;;;;;;;;;;6191513;28;20066;-64
2022/04/15 10:10:37;;;;;;;18.63;12.10;;;;;;;;;;6189575;28;20085;-60
2022/04/15 10:13:39;;;;;;;16.38;10.88;;;;;;;;;;6185665;28;20050;-61
2022/04/15 10:16:42;;;;;;;16.70;9.90;;;;;;;;;;6189180;28;20485;-64
2022/04/15 10:19:44;;;;;;;19.15;10.57;;;;;;;;;;6182672;28;20054;-60
2022/04/15 10:22:46;;;;;;;16.05;10.38;;;;;;;;;;6185749;28;20177;-62
2022/04/15 10:25:48;;;;;;;17.27;9.90;;;;;;;;;;6189441;28;20490;-63
2022/04/15 10:28:49;;;;;;;14.30;9.80;;;;;;;;;;6188524;28;20061;-59
2022/04/15 10:31:49;;;;;;;15.20;9.00;;;;;;;;;;6193102;28;20196;-59
2022/04/15 10:34:50;;;;;;;14.05;8.25;;;;;;;;;;6192785;28;20547;-59
2022/04/15 10:38:00;;;;;;;10.02;6.38;;;;;;;;;;6191409;28;20053;-60
2022/04/15 10:41:13;;;;;;;11.70;6.70;;;;;;;;;;6187686;28;20569;-59
2022/04/15 10:44:37;;;;;;;9.93;6.22;;;;;;;;;;6187169;28;21665;-60
2022/04/15 10:47:54;;;;;;;9.90;6.05;;;;;;;;;;6190074;28;20066;-57
2022/04/15 10:50:55;;;;;;;11.93;6.60;;;;;;;;;;6182395;28;20082;-61
2022/04/15 10:54:21;;;;;;;8.65;5.97;;;;;;;;;;6192367;28;20162;-60
2022/04/15 10:57:29;;;;;;;11.85;7.22;;;;;;;;;;6191801;28;20132;-61
2022/04/15 11:03:53;;;;;;;12.05;7.35;;;;;;;;;;6199296;28;20053;-62
2022/04/15 11:06:55;;;;;;;15.73;8.45;;;;;;;;;;6191876;28;20070;-60
2022/04/15 11:09:57;;;;;;;13.93;8.77;;;;;;;;;;6188154;28;20061;-58
2022/04/15 11:12:59;;;;;;;13.15;7.95;;;;;;;;;;6190872;28;20124;-59
2022/04/15 11:16:12;;;;;;;;;;;;;;;;;;6185828;28;20468;-60
2022/04/15 11:19:23;;;;;;;13.05;8.38;;;;;;;;;;6189647;28;19995;-60
2022/04/15 11:22:25;;;;;;;12.98;8.40;;;;;;;;;;6183857;28;20057;-59
2022/04/15 11:25:25;;;;;;;;;;;;;;;;;;6190540;28;20046;-60
2022/04/15 11:28:27;;;;;;;18.27;9.85;;;;;;;;;;6182481;28;20570;-59
2022/04/15 11:31:39;;;;;;;16.70;9.13;;;;;;;;;;6192185;28;20977;-59
2022/04/15 11:34:41;;;;;;;16.17;10.25;;;;;;;;;;6189473;28;20482;-59
2022/04/15 11:37:43;;;;;;;16.85;9.15;;;;;;;;;;6189994;28;20469;-59
2022/04/15 11:40:44;;;;;;;17.87;9.33;;;;;;;;;;6192747;28;20177;-59
2022/04/15 11:44:04;;;;;;;13.27;8.32;;;;;;;;;;6197306;28;20050;-61
2022/04/15 11:47:19;;;;;;;15.50;8.82;;;;;;;;;;6196018;28;20137;-59
2022/04/15 11:50:19;;;;;;;16.83;10.00;;;;;;;;;;6193542;28;20046;-59
2022/04/15 11:53:21;;;;;;;20.17;12.82;;;;;;;;;;6195518;28;20765;-61
2022/04/15 11:56:26;;;;;;;20.38;12.35;;;;;;;;;;6190344;28;20464;-59
2022/04/15 11:59:26;;;;;;;23.13;12.90;;;;;;;;;;6195042;28;20088;-59
2022/04/15 12:02:30;;;;;;;21.65;13.70;;;;;;;;;;6196131;28;20081;-58
2022/04/15 12:05:31;;;;;;;20.85;13.13;;;;;;;;;;6194782;28;20703;-60
2022/04/15 12:08:31;;;;;;;19.45;12.30;;;;;;;;;;6193352;28;20093;-64
2022/04/15 12:11:32;;;;;;;15.57;10.55;;;;;;;;;;6188684;28;20104;-61
2022/04/15 12:14:37;;;;;;;17.48;11.02;;;;;;;;;;6190176;28;20144;-60
2022/04/15 12:17:38;;;;;;;16.45;10.90;;;;;;;;;;6193447;28;20441;-60
2022/04/15 12:20:40;;;;;;;20.83;12.52;;;;;;;;;;6191534;28;20061;-60
2022/04/15 12:23:57;;;;;;;17.13;11.55;;;;;;;;;;6193240;28;20099;-64
2022/04/15 12:27:01;;;;;;;16.60;11.30;;;;;;;;;;6192495;28;21629;-60
2022/04/15 12:30:02;;;;;;;16.33;9.80;;;;;;;;;;6192791;28;20434;-58
2022/04/15 12:33:12;;;;;;;26.58;12.85;;;;;;;;;;6191294;28;20057;-61
2022/04/15 12:36:13;;;;;;;19.20;11.23;;;;;;;;;;6192794;28;20054;-60
2022/04/15 12:39:14;;;;;;;16.48;11.00;;;;;;;;;;6196796;28;20042;-61
2022/04/15 12:42:36;;;;;;;19.48;10.68;;;;;;;;;;6191260;28;20042;-60
2022/04/15 12:45:53;;;;;;;19.17;10.27;;;;;;;;;;6191851;28;20058;-60
2022/04/15 12:48:53;;;;;;;15.35;9.43;;;;;;;;;;6192249;28;20096;-59
2022/04/15 12:52:06;;;;;;;14.68;8.82;;;;;;;;;;6184473;28;20050;-59
2022/04/15 12:55:07;;;;;;;13.63;7.78;;;;;;;;;;6199228;28;20506;-59
2022/04/15 12:58:18;;;;;;;13.40;6.67;;;;;;;;;;6191249;28;21006;-59
2022/04/15 13:01:19;;;;;;;10.60;6.82;;;;;;;;;;6190013;28;20049;-59
2022/04/15 13:04:20;;;;;;;15.07;7.35;;;;;;;;;;6188968;28;20064;-59
2022/04/15 13:07:21;;;;;;;10.75;6.68;;;;;;;;;;6186546;28;20608;-60
2022/04/15 13:10:24;;;;;;;11.75;7.60;;;;;;;;;;6191803;28;20049;-60
2022/04/15 13:13:25;;;;;;;13.20;7.60;;;;;;;;;;6190602;28;20196;-60
2022/04/15 13:16:25;;;;;;;10.07;6.85;;;;;;;;;;6190513;28;20050;-60
2022/04/15 13:19:27;;;;;;;13.35;8.07;;;;;;;;;;6189632;28;20057;-60
2022/04/15 13:22:27;;;;;;;14.52;8.35;;;;;;;;;;6190470;28;20121;-59
2022/04/15 13:25:28;;;;;;;9.30;6.32;;;;;;;;;;6188946;28;20050;-59
2022/04/15 13:28:29;;;;;;;11.97;5.87;;;;;;;;;;6193735;28;20046;-59
2022/04/15 13:31:29;;;;;;;9.82;5.68;;;;;;;;;;6190776;28;20866;-59
2022/04/15 13:34:33;;;;;;;12.93;7.40;;;;;;;;;;6192441;28;20421;-59
2022/04/15 13:37:36;;;;;;;16.60;8.27;;;;;;;;;;6198630;28;20058;-55
2022/04/15 13:40:39;;;;;;;11.27;6.88;;;;;;;;;;6188936;28;20598;-59
2022/04/15 13:43:41;;;;;;;10.50;5.47;;;;;;;;;;6191113;28;20069;-61
2022/04/15 13:46:42;;;;;;;11.10;6.38;;;;;;;;;;6197079;28;20133;-59
2022/04/15 13:49:48;;;;;;;12.23;6.68;;;;;;;;;;6194933;28;20526;-61
2022/04/15 13:59:29;;;;;;;10.18;5.50;;;;;;;;;;6194266;28;20485;-61
2022/04/15 14:02:29;;;;;;;9.27;4.90;;;;;;;;;;6188367;28;20078;-61
2022/04/15 14:05:30;;;;;;;8.82;5.90;;;;;;;;;;6185133;28;20049;-61
2022/04/15 14:08:30;;;;;;;10.85;5.60;;;;;;;;;;6184993;28;20052;-60
2022/04/15 14:11:34;;;;;;;11.13;6.22;;;;;;;;;;6190047;28;20733;-61
2022/04/15 14:14:34;;;;;;;11.63;7.30;;;;;;;;;;6194000;28;20054;-61
2022/04/15 14:17:35;;;;;;;12.05;7.82;;;;;;;;;;6188119;28;20080;-61
2022/04/15 14:20:36;;;;;;;14.77;8.07;;;;;;;;;;6192341;28;20129;-62
2022/04/15 14:23:36;;;;;;;13.98;7.88;;;;;;;;;;6192749;28;20068;-62
2022/04/15 14:26:37;;;;;;;12.98;7.43;;;;;;;;;;6198927;28;20141;-61
2022/04/15 14:29:38;;;;;;;12.93;7.22;;;;;;;;;;6192248;28;20286;-61
2022/04/15 14:32:39;;;;;;;15.63;7.50;;;;;;;;;;6193975;28;20050;-61
2022/04/15 14:35:41;;;;;;;15.82;8.20;;;;;;;;;;6190955;28;20059;-61
2022/04/15 14:38:42;;;;;;;15.63;8.45;;;;;;;;;;6188617;28;20075;-62
2022/04/15 14:41:43;;;;;;;15.38;8.45;;;;;;;;;;6196565;28;20058;-61
2022/04/15 14:44:44;;;;;;;17.83;9.50;;;;;;;;;;6185805;28;20516;-63
2022/04/15 14:47:46;;;;;;;18.67;10.20;;;;;;;;;;6189849;28;20043;-62
2022/04/15 14:50:46;;;;;;;22.33;12.52;;;;;;;;;;6191123;28;20145;-59
2022/04/15 14:53:48;;;;;;;20.08;11.95;;;;;;;;;;6182908;28;21017;-60
2022/04/15 14:56:48;;;;;;;23.38;13.13;;;;;;;;;;6184002;28;20520;-61
2022/04/15 14:59:49;;;;;;;23.35;12.55;;;;;;;;;;6185225;28;20540;-62
2022/04/15 15:02:50;;;;;;;25.58;13.05;;;;;;;;;;6186189;28;20165;-62
2022/04/15 15:05:52;;;;;;;21.00;10.68;;;;;;;;;;6187403;28;20057;-62
2022/04/15 15:08:52;;;;;;;20.52;11.70;;;;;;;;;;6184925;28;20611;-62
2022/04/15 15:11:53;;;;;;;19.60;11.10;;;;;;;;;;6186404;28;20141;-62
2022/04/15 15:14:54;;;;;;;21.75;11.10;;;;;;;;;;6190686;28;20450;-63
2022/04/15 15:17:54;;;;;;;30.75;13.75;;;;;;;;;;6189963;28;20054;-62
2022/04/15 15:20:55;;;;;;;53.75;22.85;;;;;;;;;;6185753;28;20054;-62
2022/04/15 15:30:45;;;;;;;24.38;11.27;;;;;;;;;;6190756;28;20081;-63
2022/04/15 15:33:46;;;;;;;30.23;15.85;;;;;;;;;;6196441;28;20061;-62
2022/04/15 15:36:47;;;;;;;16.97;9.37;;;;;;;;;;6198215;28;20112;-60
2022/04/15 15:39:47;;;;;;;19.80;9.52;;;;;;;;;;6188817;28;20611;-63
2022/04/15 15:42:48;;;;;;;15.85;8.65;;;;;;;;;;6192306;28;21382;-62
2022/04/15 15:45:49;;;;;;;14.82;8.57;;;;;;;;;;6195439;28;20145;-63
2022/04/15 15:48:50;;;;;;;22.95;11.80;;;;;;;;;;6193370;28;20050;-62
2022/04/15 15:51:51;;;;;;;15.55;9.10;;;;;;;;;;6188957;28;20085;-62
2022/04/15 15:54:51;;;;;;;15.13;7.97;;;;;;;;;;6191996;28;20121;-61
2022/04/15 15:57:52;;;;;;;19.27;10.13;;;;;;;;;;6194414;28;20049;-63
2022/04/15 16:00:53;;;;;;;17.45;9.73;;;;;;;;;;6197470;28;20070;-64
2022/04/15 16:03:54;;;;;;;16.80;9.45;;;;;;;;;;6192227;28;20567;-63
2022/04/15 16:06:54;;;;;;;16.92;9.27;;;;;;;;;;6192916;28;20053;-64
2022/04/15 16:09:55;;;;;;;19.60;10.23;;;;;;;;;;6193840;28;20050;-63
2022/04/15 16:12:56;;;;;;;16.70;10.52;;;;;;;;;;6194050;28;20085;-62
2022/04/15 16:15:56;;;;;;;18.63;10.00;;;;;;;;;;6194219;28;20068;-62
2022/04/15 16:18:57;;;;;;;18.95;10.20;;;;;;;;;;6190677;28;20595;-62
2022/04/15 16:22:01;;;;;;;18.00;10.65;;;;;;;;;;6196053;28;20821;-62
2022/04/15 16:25:02;;;;;;;17.40;9.55;;;;;;;;;;6194896;28;20082;-61
2022/04/15 16:28:03;;;;;;;16.17;8.98;;;;;;;;;;6193091;28;20142;-62
2022/04/15 16:31:04;;;;;;;17.58;9.73;;;;;;;;;;6191039;28;20046;-61
2022/04/15 16:34:04;;;;;;;18.88;10.68;;;;;;;;;;6196454;28;20141;-61
2022/04/15 16:37:05;;;;;;;19.38;10.55;;;;;;;;;;6187641;28;20157;-61
2022/04/15 16:40:06;;;;;;;17.50;9.85;;;;;;;;;;6189339;28;20200;-62
2022/04/15 16:43:07;;;;;;;18.98;10.13;;;;;;;;;;6199638;28;20556;-62
2022/04/15 16:46:08;;;;;;;15.75;9.32;;;;;;;;;;6193788;28;20051;-63
2022/04/15 16:49:09;;;;;;;18.35;10.98;;;;;;;;;;6194677;28;20113;-63
2022/04/15 16:52:10;;;;;;;19.70;12.00;;;;;;;;;;6197288;28;20042;-63
2022/04/15 16:58:45;;;;;;;17.67;10.38;;;;;;;;;;6196552;28;20050;-62
2022/04/15 17:01:47;;;;;;;18.88;10.15;;;;;;;;;;6196875;28;20087;-63
2022/04/15 17:04:47;;;;;;;18.65;11.10;;;;;;;;;;6193886;28;20065;-63
2022/04/15 17:07:48;;;;;;;19.17;10.68;;;;;;;;;;6193362;28;20148;-63
2022/04/15 17:10:49;;;;;;;19.90;11.40;;;;;;;;;;6187101;28;20058;-62
2022/04/15 17:13:51;;;;;;;17.23;11.27;;;;;;;;;;6196163;28;21329;-62
2022/04/15 17:16:51;;;;;;;17.20;10.32;;;;;;;;;;6192407;28;20046;-62
2022/04/15 17:19:52;;;;;;;19.80;10.77;;;;;;;;;;6194258;28;20047;-62
2022/04/15 17:22:53;;;;;;;23.33;12.45;;;;;;;;;;6195258;28;20064;-61
2022/04/15 17:25:54;;;;;;;23.83;13.20;;;;;;;;;;6192271;28;20125;-60
2022/04/15 17:28:55;;;;;;;21.98;12.02;;;;;;;;;;6192349;28;20057;-61
2022/04/15 17:31:56;;;;;;;20.80;11.55;;;;;;;;;;6188429;28;20051;-61
2022/04/15 17:34:56;;;;;;;21.73;12.50;;;;;;;;;;6192691;28;20058;-61
2022/04/15 17:37:57;;;;;;;33.78;17.38;;;;;;;;;;6193783;28;20061;-61
2022/04/15 17:40:58;;;;;;;30.85;18.15;;;;;;;;;;6184215;28;20702;-61
2022/04/15 17:43:59;;;;;;;41.45;22.30;;;;;;;;;;6195684;28;20148;-62
2022/04/15 17:46:59;;;;;;;44.03;23.77;;;;;;;;;;6188295;28;20509;-62
2022/04/15 17:50:01;;;;;;;43.78;24.55;;;;;;;;;;6191462;28;20864;-61
2022/04/15 17:53:02;;;;;;;45.60;25.42;;;;;;;;;;6187991;28;20084;-61
2022/04/15 17:56:02;;;;;;;46.90;24.80;;;;;;;;;;6190668;28;20046;-61
2022/04/15 17:59:03;;;;;;;45.30;23.73;;;;;;;;;;6190822;28;20073;-61
2022/04/15 18:02:04;;;;;;;49.47;23.98;;;;;;;;;;6190415;28;20061;-61
2022/04/15 18:05:07;;;;;;;44.92;22.58;;;;;;;;;;6190554;28;20062;-62